Time;durP1;ratioP1;P1;durP2;ratioP2;P2;SDS_P1;SDS_P2;PMS_P1;PMS_P2;Temp;Humidity;BMP_temperature;BMP_pressure;BME280_temperature;BME280_humidity;BME280_pressure;Samples;Min_cycle;Max_cycle;Signal;HPM_P1;HPM_P2
2021/06/25 00:01:48;;;;;;;6.07;4.27;;;20.20;99.90;;;;;;6319664;28;20190;-72
2021/06/25 00:04:51;;;;;;;6.37;4.00;;;20.20;99.90;;;;;;6319710;28;20262;-72
2021/06/25 00:07:53;;;;;;;5.40;3.60;;;20.10;99.90;;;;;;6317849;28;20214;-72
2021/06/25 00:10:55;;;;;;;6.93;3.87;;;20.20;99.90;;;;;;6319498;28;20182;-72
2021/06/25 00:13:57;;;;;;;5.63;4.10;;;20.20;99.90;;;;;;6319820;28;20308;-72
2021/06/25 00:17:02;;;;;;;5.70;3.90;;;20.10;99.90;;;;;;6324178;28;20186;-72
2021/06/25 00:20:06;;;;;;;7.13;4.23;;;20.00;99.90;;;;;;6323649;28;20532;-72
2021/06/25 00:23:08;;;;;;;7.67;4.00;;;19.90;99.90;;;;;;6323939;28;20182;-72
2021/06/25 00:26:11;;;;;;;4.40;3.63;;;19.80;99.90;;;;;;6322557;28;20653;-72
2021/06/25 00:29:13;;;;;;;5.47;3.87;;;19.70;99.90;;;;;;6322125;28;20217;-72
2021/06/25 00:32:15;;;;;;;8.50;4.00;;;19.60;99.90;;;;;;6323827;28;20594;-72
2021/06/25 00:35:18;;;;;;;7.53;3.27;;;19.50;99.90;;;;;;6323171;28;20259;-72
2021/06/25 00:38:20;;;;;;;3.33;2.77;;;19.40;99.90;;;;;;6323706;28;20209;-72
2021/06/25 00:41:22;;;;;;;3.87;3.03;;;19.30;99.90;;;;;;6322520;28;20276;-72
2021/06/25 00:44:25;;;;;;;5.20;3.10;;;19.30;99.90;;;;;;6323076;28;20269;-72
2021/06/25 00:47:27;;;;;;;3.13;2.83;;;19.20;99.90;;;;;;6323394;28;20209;-72
2021/06/25 00:50:35;;;;;;;5.30;2.50;;;19.20;99.90;;;;;;6304749;28;20277;-72
2021/06/25 00:53:40;;;;;;;2.80;2.37;;;19.10;99.90;;;;;;6323199;28;20171;-72
2021/06/25 00:56:43;;;;;;;4.13;2.13;;;19.10;99.90;;;;;;6305199;28;20649;-72
2021/06/25 00:59:45;;;;;;;5.77;2.30;;;19.00;99.90;;;;;;6322551;28;20202;-72
2021/06/25 01:02:48;;;;;;;3.60;1.80;;;19.00;99.90;;;;;;6323089;28;20197;-72
2021/06/25 01:05:50;;;;;;;5.07;2.40;;;18.90;99.90;;;;;;6321215;28;20249;-72
2021/06/25 01:08:52;;;;;;;8.83;2.53;;;18.80;99.90;;;;;;6321578;28;20304;-72
2021/06/25 01:11:55;;;;;;;7.17;2.90;;;18.80;99.90;;;;;;6323442;28;20205;-72
2021/06/25 01:14:58;;;;;;;3.70;2.67;;;18.80;99.90;;;;;;6322308;28;20258;-72
2021/06/25 01:18:02;;;;;;;4.30;3.00;;;18.80;99.90;;;;;;6322311;28;20205;-72
2021/06/25 01:21:04;;;;;;;5.93;3.60;;;18.90;99.90;;;;;;6321776;28;20192;-72
2021/06/25 01:24:07;;;;;;;5.93;3.27;;;18.90;99.90;;;;;;6322271;28;20194;-72
2021/06/25 01:27:09;;;;;;;5.73;3.00;;;18.90;99.90;;;;;;6321252;28;20661;-72
2021/06/25 01:30:16;;;;;;;6.40;3.27;;;19.00;99.90;;;;;;6322499;28;20271;-72
2021/06/25 01:33:20;;;;;;;8.23;2.93;;;19.00;99.90;;;;;;6322663;28;20175;-72
2021/06/25 01:36:22;;;;;;;6.30;3.03;;;19.10;99.90;;;;;;6321573;28;20304;-72
2021/06/25 01:39:27;;;;;;;6.50;3.03;;;19.00;99.90;;;;;;6322315;28;20190;-72
2021/06/25 01:42:33;;;;;;;6.57;2.77;;;19.00;99.90;;;;;;6321952;28;20177;-72
2021/06/25 01:45:37;;;;;;;6.10;3.80;;;19.00;99.90;;;;;;6320632;28;20186;-72
2021/06/25 01:48:40;;;;;;;7.03;3.80;;;18.90;99.90;;;;;;6322047;28;20198;-72
2021/06/25 01:51:47;;;;;;;4.27;3.60;;;18.90;99.90;;;;;;6321554;28;20684;-72
2021/06/25 01:54:49;;;;;;;3.97;3.47;;;19.00;99.90;;;;;;6321823;28;20177;-72
2021/06/25 01:57:52;;;;;;;4.13;3.83;;;19.00;99.90;;;;;;6303492;28;20209;-72
2021/06/25 02:01:13;;;;;;;4.50;4.07;;;19.10;99.90;;;;;;6320385;28;20201;-72
2021/06/25 02:04:16;;;;;;;5.33;3.80;;;19.10;99.90;;;;;;6303330;28;20546;-72
2021/06/25 02:07:18;;;;;;;5.90;3.70;;;19.10;99.90;;;;;;6320132;28;20223;-72
2021/06/25 02:10:20;;;;;;;6.30;3.77;;;19.20;99.90;;;;;;6320082;28;20281;-72
2021/06/25 02:13:22;;;;;;;7.67;4.00;;;19.20;99.90;;;;;;6319598;28;20252;-72
2021/06/25 02:16:24;;;;;;;3.60;3.30;;;19.20;99.90;;;;;;6319906;28;20201;-72
2021/06/25 02:19:27;;;;;;;5.53;3.80;;;19.10;99.90;;;;;;6302864;28;20202;-72
2021/06/25 02:22:29;;;;;;;5.13;3.87;;;19.10;99.90;;;;;;6321072;28;20275;-72
2021/06/25 02:25:31;;;;;;;7.27;3.77;;;19.10;99.90;;;;;;6320884;28;20285;-72
2021/06/25 02:28:33;;;;;;;3.40;2.77;;;19.10;99.90;;;;;;6320501;28;20218;-71
2021/06/25 02:31:35;;;;;;;4.83;3.20;;;19.00;99.90;;;;;;6320982;28;20264;-71
2021/06/25 02:34:38;;;;;;;2.87;2.67;;;19.00;99.90;;;;;;6319036;28;20200;-72
2021/06/25 02:37:41;;;;;;;3.73;2.67;;;19.00;99.90;;;;;;6318572;28;20308;-72
2021/06/25 02:40:43;;;;;;;2.50;2.30;;;18.90;99.90;;;;;;6319163;28;20210;-72
2021/06/25 02:43:48;;;;;;;3.33;2.30;;;18.90;99.90;;;;;;6320631;28;20190;-71
2021/06/25 02:46:50;;;;;;;4.87;2.40;;;18.80;99.90;;;;;;6320641;28;20213;-71
2021/06/25 02:49:53;;;;;;;4.93;2.40;;;18.80;99.90;;;;;;6318873;28;20212;-71
2021/06/25 02:52:55;;;;;;;5.93;2.50;;;18.80;99.90;;;;;;6320937;28;20193;-71
2021/06/25 02:55:58;;;;;;;2.97;2.37;;;18.70;99.90;;;;;;6320027;28;20210;-71
2021/06/25 02:59:00;;;;;;;3.37;2.60;;;18.70;99.90;;;;;;6319238;28;20269;-71
2021/06/25 03:02:03;;;;;;;3.40;2.60;;;18.70;99.90;;;;;;6319073;28;20201;-71
2021/06/25 03:05:07;;;;;;;3.10;2.80;;;18.70;99.90;;;;;;6319751;28;20585;-71
2021/06/25 03:08:09;;;;;;;2.97;2.70;;;18.70;99.90;;;;;;6319036;28;20343;-71
2021/06/25 03:11:11;;;;;;;5.33;2.67;;;18.70;99.90;;;;;;6318475;28;20189;-71
2021/06/25 03:14:14;;;;;;;5.73;3.40;;;18.70;99.90;;;;;;6319366;28;20759;-71
2021/06/25 03:17:16;;;;;;;2.70;2.50;;;18.70;99.90;;;;;;6318795;28;20565;-71
2021/06/25 03:20:18;;;;;;;4.70;2.80;;;18.60;99.90;;;;;;6319670;28;20186;-71
2021/06/25 03:23:20;;;;;;;3.20;2.90;;;18.70;99.90;;;;;;6320213;28;20195;-71
2021/06/25 03:26:23;;;;;;;2.70;2.50;;;18.70;99.90;;;;;;6319517;28;20190;-71
2021/06/25 03:29:25;;;;;;;3.77;2.67;;;18.60;99.90;;;;;;6319694;28;20702;-71
2021/06/25 03:32:27;;;;;;;3.53;2.83;;;18.60;99.90;;;;;;6317782;28;20198;-71
2021/06/25 03:35:30;;;;;;;2.60;2.40;;;18.60;99.90;;;;;;6319524;28;20259;-71
2021/06/25 03:38:32;;;;;;;3.00;2.57;;;18.60;99.90;;;;;;6319711;28;20190;-71
2021/06/25 03:41:35;;;;;;;2.80;2.60;;;18.60;99.90;;;;;;6319257;28;20185;-71
2021/06/25 03:44:37;;;;;;;2.53;2.30;;;18.60;99.90;;;;;;6318416;28;20626;-71
2021/06/25 03:47:41;;;;;;;5.10;3.03;;;18.60;99.90;;;;;;6320716;28;20217;-71
2021/06/25 03:50:43;;;;;;;3.83;2.67;;;18.50;99.90;;;;;;6324681;28;20269;-71
2021/06/25 03:53:45;;;;;;;3.70;2.13;;;18.50;99.90;;;;;;6323457;28;20550;-71
2021/06/25 03:56:47;;;;;;;4.03;2.23;;;18.50;99.90;;;;;;6322655;28;20194;-71
2021/06/25 03:59:50;;;;;;;2.57;2.10;;;18.50;99.90;;;;;;6324038;28;20288;-71
2021/06/25 04:02:52;;;;;;;2.57;2.17;;;18.50;99.90;;;;;;6322479;28;20217;-71
2021/06/25 04:05:54;;;;;;;1.90;1.80;;;18.50;99.90;;;;;;6322809;28;20194;-71
2021/06/25 04:08:56;;;;;;;2.23;1.97;;;18.50;99.90;;;;;;6322866;28;20217;-71
2021/06/25 04:11:59;;;;;;;1.60;1.50;;;18.50;99.90;;;;;;6322280;28;20779;-71
2021/06/25 04:15:02;;;;;;;1.87;1.70;;;18.40;99.90;;;;;;6323827;28;20675;-71
2021/06/25 04:18:05;;;;;;;1.73;1.60;;;18.40;99.90;;;;;;6322198;28;20213;-71
2021/06/25 04:21:07;;;;;;;1.40;1.30;;;18.40;99.90;;;;;;6322983;28;20198;-71
2021/06/25 04:24:09;;;;;;;3.03;1.20;;;18.50;99.90;;;;;;6323810;28;20175;-71
2021/06/25 04:27:11;;;;;;;1.63;1.43;;;18.40;99.90;;;;;;6322131;28;20193;-71
2021/06/25 04:30:14;;;;;;;2.93;1.27;;;18.50;99.90;;;;;;6322490;28;20688;-71
2021/06/25 04:33:17;;;;;;;5.27;1.20;;;18.40;99.90;;;;;;6321849;28;20198;-71
2021/06/25 04:36:19;;;;;;;1.93;1.37;;;18.40;99.90;;;;;;6323320;28;20209;-71
2021/06/25 04:39:21;;;;;;;3.90;1.67;;;18.40;99.90;;;;;;6321865;28;20197;-71
2021/06/25 04:42:24;;;;;;;1.83;1.63;;;18.30;99.90;;;;;;6305368;28;20186;-71
2021/06/25 04:45:26;;;;;;;4.13;1.67;;;18.40;99.90;;;;;;6321826;28;20271;-71
2021/06/25 04:48:29;;;;;;;2.10;1.43;;;18.40;99.90;;;;;;6321358;28;20217;-71
2021/06/25 04:51:31;;;;;;;3.87;1.60;;;18.40;99.90;;;;;;6322080;28;20620;-71
2021/06/25 04:54:34;;;;;;;4.40;1.30;;;18.40;99.90;;;;;;6321427;28;20178;-71
2021/06/25 04:57:37;;;;;;;2.43;1.63;;;18.40;99.90;;;;;;6322756;28;20186;-71
2021/06/25 05:00:40;;;;;;;2.60;1.80;;;18.40;99.90;;;;;;6320744;28;20190;-71
2021/06/25 05:03:43;;;;;;;2.03;1.40;;;18.40;99.90;;;;;;6322408;28;20650;-72
2021/06/25 05:06:47;;;;;;;1.80;1.70;;;18.40;99.90;;;;;;6322832;28;20596;-72
2021/06/25 05:09:49;;;;;;;2.80;1.20;;;18.40;99.90;;;;;;6322698;28;20322;-72
2021/06/25 05:12:52;;;;;;;1.77;1.40;;;18.50;99.90;;;;;;6323254;28;20301;-71
2021/06/25 05:15:54;;;;;;;1.50;1.40;;;18.50;99.90;;;;;;6321607;28;20186;-71
2021/06/25 05:18:56;;;;;;;1.50;1.40;;;18.50;99.90;;;;;;6321612;28;20190;-71
2021/06/25 05:22:03;;;;;;;3.03;1.63;;;18.50;99.90;;;;;;6323301;28;20175;-71
2021/06/25 05:25:06;;;;;;;2.67;1.60;;;18.60;99.90;;;;;;6321900;28;20200;-71
2021/06/25 05:28:09;;;;;;;1.63;1.53;;;18.60;99.90;;;;;;6322097;28;20263;-71
2021/06/25 05:31:11;;;;;;;4.33;1.23;;;18.60;99.90;;;;;;6321739;28;20189;-71
2021/06/25 05:34:14;;;;;;;3.57;1.80;;;18.70;99.90;;;;;;6322220;28;20190;-71
2021/06/25 05:37:16;;;;;;;1.43;1.30;;;18.60;99.90;;;;;;6320424;28;20206;-71
2021/06/25 05:40:18;;;;;;;2.43;1.30;;;18.70;99.90;;;;;;6321559;28;20568;-71
2021/06/25 05:43:20;;;;;;;1.50;1.40;;;18.70;99.90;;;;;;6321910;28;20267;-71
2021/06/25 05:46:23;;;;;;;2.10;1.03;;;18.80;99.90;;;;;;6319889;28;20288;-71
2021/06/25 05:49:25;;;;;;;1.40;1.20;;;18.80;99.90;;;;;;6320588;28;20237;-73
2021/06/25 05:52:27;;;;;;;1.50;1.40;;;18.90;99.90;;;;;;6321790;28;20188;-72
2021/06/25 05:55:29;;;;;;;1.20;1.10;;;18.90;99.90;;;;;;6319748;28;20200;-73
2021/06/25 05:58:32;;;;;;;3.40;1.30;;;18.90;99.90;;;;;;6321406;28;20194;-73
2021/06/25 06:01:34;;;;;;;3.73;1.40;;;19.00;99.90;;;;;;6319716;28;20194;-73
2021/06/25 06:04:36;;;;;;;2.10;1.27;;;19.00;99.90;;;;;;6320056;28;20677;-73
2021/06/25 06:07:38;;;;;;;2.90;1.23;;;19.10;99.90;;;;;;6319897;28;20615;-73
2021/06/25 06:10:41;;;;;;;3.43;1.73;;;19.10;99.90;;;;;;6320655;28;20205;-73
2021/06/25 06:13:43;;;;;;;1.63;1.40;;;19.10;99.90;;;;;;6319709;28;20613;-70
2021/06/25 06:16:46;;;;;;;1.53;1.00;;;19.20;99.90;;;;;;6320616;28;20244;-73
2021/06/25 06:19:53;;;;;;;2.50;1.17;;;19.30;99.90;;;;;;6321229;28;20186;-71
2021/06/25 06:33:03;;;;;;;2.23;1.33;;;19.60;99.90;;;;;;6320386;28;20174;-71
2021/06/25 06:36:11;;;;;;;2.63;1.30;;;19.70;99.90;;;;;;6319146;28;20655;-71
2021/06/25 06:39:14;;;;;;;2.93;1.60;;;19.80;99.90;;;;;;6320202;28;20198;-71
2021/06/25 06:42:17;;;;;;;2.47;1.70;;;19.90;99.90;;;;;;6321101;28;20461;-71
2021/06/25 06:45:19;;;;;;;3.47;1.53;;;20.00;99.90;;;;;;6319850;28;20200;-71
2021/06/25 06:48:21;;;;;;;3.27;1.43;;;20.10;99.90;;;;;;6320377;28;20190;-72
2021/06/25 06:51:24;;;;;;;1.50;1.40;;;20.20;99.90;;;;;;6319145;28;20712;-72
2021/06/25 06:54:26;;;;;;;1.40;1.23;;;20.30;99.90;;;;;;6319810;28;20209;-71
2021/06/25 06:57:28;;;;;;;3.10;1.17;;;20.40;99.90;;;;;;6318954;28;20197;-71
2021/06/25 07:00:30;;;;;;;1.00;1.00;;;20.60;99.90;;;;;;6319501;28;20186;-71
2021/06/25 07:03:42;;;;;;;3.37;1.00;;;20.80;99.90;;;;;;6318997;28;20532;-71
2021/06/25 07:06:44;;;;;;;2.40;1.17;;;20.90;99.90;;;;;;6318617;28;20740;-71
2021/06/25 07:09:46;;;;;;;4.30;1.10;;;20.90;99.90;;;;;;6318103;28;20289;-71
2021/06/25 07:12:48;;;;;;;2.60;1.10;;;21.00;99.90;;;;;;6318486;28;20463;-71
2021/06/25 07:15:51;;;;;;;1.73;0.90;;;21.10;99.90;;;;;;6317921;28;20284;-71
2021/06/25 07:18:53;;;;;;;2.07;0.90;;;21.20;99.90;;;;;;6319010;28;20235;-71
2021/06/25 07:21:56;;;;;;;2.17;0.80;;;21.40;99.90;;;;;;6316651;28;20296;-72
2021/06/25 07:24:58;;;;;;;3.50;1.00;;;21.50;99.90;;;;;;6335273;28;20563;-72
2021/06/25 07:28:01;;;;;;;1.10;1.10;;;21.60;99.90;;;;;;6318470;28;20205;-72
2021/06/25 07:31:03;;;;;;;1.27;1.17;;;21.70;99.90;;;;;;6316250;28;20209;-72
2021/06/25 07:34:06;;;;;;;1.23;0.90;;;21.90;99.90;;;;;;6318656;28;20190;-72
2021/06/25 07:37:08;;;;;;;1.97;1.13;;;22.00;99.90;;;;;;6317021;28;20591;-72
2021/06/25 07:40:11;;;;;;;0.80;0.80;;;22.30;99.90;;;;;;6318499;28;20193;-72
2021/06/25 07:43:13;;;;;;;1.40;0.90;;;22.30;99.90;;;;;;6317587;28;20536;-72
2021/06/25 07:46:15;;;;;;;1.27;0.90;;;22.30;99.90;;;;;;6316033;28;20200;-72
2021/06/25 07:49:18;;;;;;;3.00;1.00;;;22.30;99.90;;;;;;6318857;28;20205;-72
2021/06/25 07:52:20;;;;;;;1.87;1.07;;;22.40;99.90;;;;;;6316899;28;20193;-72
2021/06/25 07:55:23;;;;;;;2.20;0.80;;;22.60;99.80;;;;;;6317738;28;20186;-72
2021/06/25 07:58:25;;;;;;;0.70;0.70;;;22.80;99.00;;;;;;6318888;28;20186;-72
2021/06/25 08:01:27;;;;;;;1.37;0.90;;;22.80;99.30;;;;;;6317128;28;20190;-72
2021/06/25 08:04:31;;;;;;;0.83;0.83;;;23.10;99.30;;;;;;6317213;28;20240;-72
2021/06/25 08:07:34;;;;;;;1.77;0.90;;;23.40;98.80;;;;;;6317816;28;20284;-72
2021/06/25 08:10:36;;;;;;;2.67;0.80;;;23.60;97.30;;;;;;6319317;28;20225;-72
2021/06/25 08:13:39;;;;;;;2.10;0.77;;;23.50;98.00;;;;;;6317076;28;20217;-72
2021/06/25 08:16:41;;;;;;;1.20;0.80;;;23.60;97.20;;;;;;6319444;28;20186;-71
2021/06/25 08:19:44;;;;;;;0.60;0.60;;;23.80;96.80;;;;;;6319066;28;20195;-71
2021/06/25 08:22:46;;;;;;;0.83;0.80;;;24.20;96.70;;;;;;6317354;28;20205;-72
2021/06/25 08:25:48;;;;;;;2.27;0.90;;;24.70;94.00;;;;;;6318588;28;20187;-72
2021/06/25 08:28:52;;;;;;;1.23;0.80;;;25.10;94.30;;;;;;6318303;28;20268;-72
2021/06/25 08:31:54;;;;;;;1.17;0.80;;;25.40;93.10;;;;;;6326508;28;20678;-72
2021/06/25 08:34:57;;;;;;;1.33;0.80;;;25.50;92.10;;;;;;6319706;28;20193;-72
2021/06/25 08:37:59;;;;;;;0.80;0.80;;;25.30;91.80;;;;;;6320790;28;20225;-72
2021/06/25 08:41:04;;;;;;;1.03;0.70;;;25.00;91.60;;;;;;6321348;28;20269;-72
2021/06/25 08:44:06;;;;;;;0.73;0.73;;;24.70;92.70;;;;;;6327946;28;20198;-72
2021/06/25 08:47:09;;;;;;;0.80;0.60;;;24.60;92.50;;;;;;6318818;28;20999;-72
2021/06/25 08:50:14;;;;;;;0.77;0.70;;;24.60;93.20;;;;;;6320891;28;20308;-72
2021/06/25 08:53:17;;;;;;;0.80;0.73;;;24.90;93.00;;;;;;6322340;28;20186;-71
2021/06/25 08:56:19;;;;;;;0.73;0.73;;;25.10;91.20;;;;;;6321265;28;20194;-71
2021/06/25 08:59:22;;;;;;;2.07;0.63;;;25.40;90.70;;;;;;6321830;28;20178;-71
2021/06/25 09:02:32;;;;;;;1.08;0.73;;;25.90;90.90;;;;;;6313238;28;20319;-71
2021/06/25 09:05:35;;;;;;;0.60;0.60;;;26.30;87.80;;;;;;6322324;28;20186;-71
2021/06/25 09:08:38;;;;;;;0.90;0.77;;;26.30;85.40;;;;;;6322348;28;20263;-72
2021/06/25 09:11:42;;;;;;;1.02;0.50;;;26.60;86.50;;;;;;6320533;28;20222;-73
2021/06/25 09:15:13;;;;;;;1.00;0.60;;;26.90;82.50;;;;;;6320762;28;20222;-72
2021/06/25 09:18:15;;;;;;;0.77;0.40;;;27.00;80.50;;;;;;6318507;28;20661;-72
2021/06/25 09:21:17;;;;;;;0.88;0.65;;;27.10;79.90;;;;;;6318951;28;20205;-71
2021/06/25 09:24:25;;;;;;;0.80;0.80;;;27.30;79.40;;;;;;6322323;28;20194;-71
2021/06/25 09:27:28;;;;;;;1.88;0.63;;;27.40;79.20;;;;;;6319898;28;20281;-71
2021/06/25 09:30:43;;;;;;;0.60;0.55;;;27.50;78.60;;;;;;6320037;28;20347;-72
2021/06/25 09:33:47;;;;;;;1.42;0.52;;;27.60;77.70;;;;;;6321841;28;20221;-72
2021/06/25 09:36:49;;;;;;;0.82;0.60;;;27.60;75.50;;;;;;6321088;28;20216;-72
2021/06/25 09:39:58;;;;;;;1.27;0.50;;;27.60;74.80;;;;;;6320504;28;20194;-73
2021/06/25 09:43:12;;;;;;;2.42;0.60;;;27.50;75.90;;;;;;6319714;28;20199;-72
2021/06/25 09:46:14;;;;;;;0.60;0.60;;;27.50;75.80;;;;;;6321256;28;20670;-72
2021/06/25 09:49:24;;;;;;;0.50;0.50;;;27.80;73.30;;;;;;6320127;28;20178;-72
2021/06/25 09:53:05;;;;;;;1.95;0.70;;;27.90;72.90;;;;;;6319857;28;20496;-72
2021/06/25 09:56:21;;;;;;;0.60;0.60;;;27.80;70.30;;;;;;6303665;28;20683;-72
2021/06/25 10:02:32;;;;;;;0.70;0.60;;;28.10;69.50;;;;;;6321236;28;20183;-71
2021/06/25 10:05:34;;;;;;;2.00;0.63;;;28.20;69.00;;;;;;6320707;28;20269;-72
2021/06/25 10:08:37;;;;;;;0.40;0.40;;;28.40;67.10;;;;;;6320336;28;20263;-72
2021/06/25 10:11:40;;;;;;;1.88;0.63;;;28.60;66.40;;;;;;6319672;28;20213;-72
2021/06/25 10:14:43;;;;;;;0.70;0.55;;;28.90;66.60;;;;;;6318214;28;20561;-72
2021/06/25 10:17:45;;;;;;;0.85;0.50;;;29.00;64.50;;;;;;6319138;28;20544;-72
2021/06/25 10:20:49;;;;;;;0.57;0.57;;;29.00;64.80;;;;;;6319152;28;20193;-72
2021/06/25 10:23:56;;;;;;;1.00;0.70;;;28.80;63.70;;;;;;6318474;28;20194;-72
2021/06/25 10:27:02;;;;;;;1.45;0.70;;;28.70;63.80;;;;;;6318001;28;20615;-72
2021/06/25 10:30:06;;;;;;;1.17;0.70;;;28.60;64.30;;;;;;6320810;28;20476;-72
2021/06/25 10:33:08;;;;;;;0.60;0.60;;;28.70;62.70;;;;;;6307161;28;20323;-72
2021/06/25 10:36:18;;;;;;;2.55;0.68;;;28.70;62.30;;;;;;6319934;28;20210;-71
2021/06/25 10:39:20;;;;;;;0.60;0.57;;;28.40;63.20;;;;;;6315666;28;20182;-72
2021/06/25 10:45:45;;;;;;;0.60;0.60;;;27.50;65.40;;;;;;6495084;22;20215;-88
2021/06/25 10:49:02;;;;;;;1.15;0.80;;;27.60;66.50;;;;;;6219453;28;20674;-88
2021/06/25 10:52:09;;;;;;;0.85;0.70;;;27.90;65.20;;;;;;6220122;28;20282;-88
2021/06/25 10:55:16;;;;;;;0.82;0.60;;;27.80;64.30;;;;;;6220738;28;20195;-88
2021/06/25 10:58:25;;;;;;;1.95;0.50;;;27.90;63.90;;;;;;6203512;28;20196;-88
2021/06/25 11:01:49;;;;;;;0.73;0.68;;;27.80;64.30;;;;;;6220253;28;20193;-88
2021/06/25 11:04:51;;;;;;;1.13;0.70;;;28.30;63.10;;;;;;6492034;22;20636;-73
2021/06/25 11:08:15;;;;;;;0.52;0.52;;;28.20;63.90;;;;;;6258975;28;20284;-73
2021/06/25 11:11:28;;;;;;;1.30;1.15;;;28.20;62.10;;;;;;6241971;28;20298;-73
2021/06/25 11:14:30;;;;;;;0.60;0.60;;;27.90;61.10;;;;;;6260779;28;20192;-73
2021/06/25 11:17:55;;;;;;;0.75;0.60;;;27.60;63.20;;;;;;6243149;28;20545;-73
2021/06/25 11:21:01;;;;;;;0.93;0.50;;;27.30;64.70;;;;;;6242709;28;20196;-73
2021/06/25 11:24:03;;;;;;;0.73;0.73;;;27.30;66.60;;;;;;6243114;28;20196;-72
2021/06/25 11:27:06;;;;;;;3.60;2.38;;;27.20;65.70;;;;;;6244207;28;20196;-72
2021/06/25 11:30:08;;;;;;;0.52;0.52;;;27.50;63.60;;;;;;6244798;28;20207;-71
2021/06/25 11:33:27;;;;;;;1.00;0.47;;;28.10;61.60;;;;;;6244826;28;20245;-73
2021/06/25 11:36:34;;;;;;;1.45;0.80;;;28.70;59.40;;;;;;6242455;28;20258;-72
2021/06/25 11:39:37;;;;;;;2.38;0.80;;;29.40;60.40;;;;;;6244886;28;20290;-73
2021/06/25 11:42:39;;;;;;;1.63;0.80;;;29.90;58.90;;;;;;6245039;28;20196;-73
2021/06/25 11:45:46;;;;;;;0.60;0.60;;;29.90;58.40;;;;;;6243229;28;20307;-73
2021/06/25 11:48:50;;;;;;;0.80;0.73;;;29.70;58.40;;;;;;6243157;28;20194;-73
2021/06/25 11:51:52;;;;;;;0.80;0.80;;;29.20;58.90;;;;;;6242762;28;20282;-73
2021/06/25 11:55:08;;;;;;;0.88;0.57;;;28.70;59.60;;;;;;6244547;28;20282;-73
2021/06/25 11:58:18;;;;;;;0.60;0.50;;;28.30;59.90;;;;;;6243950;28;20196;-72
2021/06/25 12:01:21;;;;;;;3.03;0.68;;;28.10;60.80;;;;;;6259094;28;20293;-72
2021/06/25 12:04:42;;;;;;;0.50;0.50;;;27.80;60.60;;;;;;6259738;28;20714;-73
2021/06/25 12:07:45;;;;;;;0.77;0.73;;;27.70;62.20;;;;;;6243557;28;20538;-73
2021/06/25 12:10:56;;;;;;;0.70;0.70;;;27.40;61.10;;;;;;6248593;28;20688;-73
2021/06/25 12:13:59;;;;;;;1.80;0.80;;;27.10;61.60;;;;;;6247417;28;20195;-73
2021/06/25 12:17:02;;;;;;;0.57;0.57;;;26.80;62.40;;;;;;6247292;28;20291;-73
2021/06/25 12:20:08;;;;;;;0.85;0.85;;;26.60;64.50;;;;;;6248589;28;20199;-73
2021/06/25 12:23:10;;;;;;;2.42;0.77;;;26.30;65.80;;;;;;6248904;28;20195;-73
2021/06/25 12:26:18;;;;;;;0.60;0.60;;;26.10;65.50;;;;;;6247073;28;20651;-73
2021/06/25 12:29:28;;;;;;;1.25;0.60;;;26.00;65.90;;;;;;6247652;28;20745;-73
2021/06/25 12:32:30;;;;;;;0.70;0.60;;;26.10;66.80;;;;;;6246891;28;20201;-73
2021/06/25 12:36:01;;;;;;;0.50;0.50;;;26.10;65.30;;;;;;6247151;28;20286;-73
2021/06/25 12:39:06;;;;;;;0.60;0.60;;;26.00;66.00;;;;;;6221294;28;20287;-73
2021/06/25 12:42:09;;;;;;;0.80;0.80;;;25.80;66.40;;;;;;6235496;28;20209;-72
2021/06/25 12:45:12;;;;;;;1.77;0.77;;;25.60;66.40;;;;;;6246152;28;20199;-72
2021/06/25 12:48:26;;;;;;;0.60;0.60;;;25.50;67.20;;;;;;6246691;28;20211;-72
2021/06/25 12:51:33;;;;;;;0.98;0.88;;;25.50;68.50;;;;;;6245935;28;20204;-72
2021/06/25 12:54:35;;;;;;;1.02;0.70;;;25.40;69.80;;;;;;6248125;28;20674;-72
2021/06/25 12:57:37;;;;;;;0.80;0.63;;;25.30;68.30;;;;;;6229056;28;20647;-72
2021/06/25 13:00:41;;;;;;;0.73;0.73;;;25.10;69.40;;;;;;6246249;28;20272;-72
2021/06/25 13:03:46;;;;;;;0.52;0.52;;;25.00;69.10;;;;;;6251985;28;20238;-72
2021/06/25 13:06:51;;;;;;;3.38;0.70;;;25.00;69.70;;;;;;6254885;28;20365;-72
2021/06/25 13:09:54;;;;;;;0.63;0.63;;;25.00;71.40;;;;;;6256012;28;20200;-72
2021/06/25 13:13:13;;;;;;;0.75;0.60;;;24.90;71.40;;;;;;6253084;28;20192;-72
2021/06/25 13:16:18;;;;;;;0.55;0.55;;;24.80;71.50;;;;;;6269835;28;20710;-72
2021/06/25 13:19:23;;;;;;;0.68;0.52;;;24.70;71.80;;;;;;6254005;28;20191;-72
2021/06/25 13:22:50;;;;;;;0.70;0.70;;;24.60;71.70;;;;;;6268287;28;20183;-72
2021/06/25 13:26:08;;;;;;;1.77;0.68;;;24.60;72.10;;;;;;6249294;28;20289;-73
2021/06/25 13:29:10;;;;;;;1.23;0.60;;;24.60;74.70;;;;;;6250308;28;20199;-73
2021/06/25 13:32:15;;;;;;;0.60;0.60;;;24.60;76.10;;;;;;6271451;28;20210;-73
2021/06/25 13:35:19;;;;;;;0.53;0.53;;;24.50;76.80;;;;;;6255539;28;20195;-73
2021/06/25 13:38:26;;;;;;;0.95;0.77;;;24.30;78.10;;;;;;6255766;28;20241;-72
2021/06/25 13:41:36;;;;;;;0.60;0.60;;;24.10;75.40;;;;;;6266287;28;20233;-72
2021/06/25 13:44:39;;;;;;;2.70;0.73;;;24.00;76.10;;;;;;6296704;28;20514;-72
2021/06/25 13:47:42;;;;;;;1.83;0.70;;;23.90;77.60;;;;;;6268239;28;20516;-72
2021/06/25 13:51:05;;;;;;;0.60;0.60;;;23.90;77.70;;;;;;6270001;28;20700;-72
2021/06/25 13:54:21;;;;;;;0.80;0.60;;;23.80;79.50;;;;;;6271422;28;20686;-72
2021/06/25 13:57:23;;;;;;;1.40;0.87;;;23.80;80.30;;;;;;6266456;28;20277;-72
2021/06/25 14:00:33;;;;;;;1.00;1.00;;;23.60;78.80;;;;;;6271281;28;20697;-72
2021/06/25 14:03:36;;;;;;;0.90;0.90;;;23.50;79.60;;;;;;6269143;28;20231;-72
2021/06/25 14:07:13;;;;;;;3.53;1.27;;;23.40;79.40;;;;;;6270125;28;20187;-73
2021/06/25 14:10:16;;;;;;;1.07;1.07;;;23.30;79.10;;;;;;6177981;28;20230;-71
2021/06/25 14:13:33;;;;;;;1.53;1.00;;;23.20;79.50;;;;;;6184407;28;20199;-72
2021/06/25 14:16:37;;;;;;;0.80;0.80;;;23.00;78.90;;;;;;6180250;28;20217;-70
2021/06/25 14:19:40;;;;;;;1.00;1.00;;;23.00;79.10;;;;;;6195127;28;20631;-74
2021/06/25 14:22:42;;;;;;;0.83;0.83;;;22.90;79.10;;;;;;6194498;28;20328;-73
2021/06/25 14:25:45;;;;;;;1.37;1.00;;;22.70;78.60;;;;;;6175141;28;20304;-73
2021/06/25 14:28:48;;;;;;;1.00;0.80;;;22.80;79.60;;;;;;6181973;28;20205;-72
2021/06/25 14:31:51;;;;;;;1.00;0.90;;;22.70;80.30;;;;;;6164701;28;20242;-72
2021/06/25 14:34:53;;;;;;;1.23;0.70;;;22.70;81.70;;;;;;6166508;28;20205;-72
2021/06/25 14:37:56;;;;;;;0.60;0.50;;;22.70;83.30;;;;;;6189165;28;20201;-72
2021/06/25 14:40:59;;;;;;;0.90;0.77;;;22.60;82.90;;;;;;6169368;28;20194;-73
2021/06/25 14:44:03;;;;;;;0.60;0.50;;;22.60;82.50;;;;;;6174258;28;20291;-73
2021/06/25 14:47:06;;;;;;;2.40;0.63;;;22.60;82.20;;;;;;6237929;28;20200;-72
2021/06/25 14:50:08;;;;;;;0.60;0.60;;;22.60;82.10;;;;;;6270517;28;20191;-72
2021/06/25 14:53:11;;;;;;;0.90;0.80;;;22.60;81.00;;;;;;6264649;28;20278;-73
2021/06/25 14:56:13;;;;;;;0.90;0.80;;;22.60;80.70;;;;;;6251845;28;20202;-73
2021/06/25 14:59:15;;;;;;;1.60;0.73;;;22.60;81.10;;;;;;6238990;28;20207;-72
2021/06/25 15:02:18;;;;;;;0.70;0.70;;;22.50;81.50;;;;;;6264150;28;20599;-72
2021/06/25 15:05:21;;;;;;;0.63;0.60;;;22.50;82.10;;;;;;6269665;28;20231;-72
2021/06/25 15:08:23;;;;;;;0.60;0.50;;;22.40;81.10;;;;;;6251242;28;20292;-72
2021/06/25 15:11:26;;;;;;;1.03;0.53;;;22.40;81.90;;;;;;6251556;28;20215;-72
2021/06/25 15:14:28;;;;;;;0.63;0.63;;;22.40;83.10;;;;;;6260150;28;20195;-72
2021/06/25 15:17:30;;;;;;;0.70;0.60;;;22.30;82.60;;;;;;6270521;28;20190;-73
2021/06/25 15:20:32;;;;;;;1.70;0.60;;;22.30;83.70;;;;;;6253334;28;20337;-72
2021/06/25 15:23:35;;;;;;;0.47;0.40;;;22.30;84.50;;;;;;6256200;28;20191;-73
2021/06/25 15:26:38;;;;;;;0.50;0.50;;;22.20;86.20;;;;;;6258052;28;20198;-72
2021/06/25 15:29:40;;;;;;;2.30;0.53;;;22.10;86.60;;;;;;6250185;28;20663;-72
2021/06/25 15:32:43;;;;;;;1.10;0.70;;;22.00;88.60;;;;;;6269281;28;20233;-73
2021/06/25 15:35:45;;;;;;;0.43;0.43;;;22.00;90.60;;;;;;6245847;28;20551;-72
2021/06/25 15:38:47;;;;;;;1.90;0.57;;;22.00;91.50;;;;;;6267482;28;20195;-72
2021/06/25 15:41:50;;;;;;;1.27;0.70;;;21.90;92.30;;;;;;6250235;28;20199;-72
2021/06/25 15:44:52;;;;;;;0.60;0.53;;;21.90;93.00;;;;;;6274747;28;20191;-72
2021/06/25 15:47:54;;;;;;;0.60;0.60;;;21.80;93.60;;;;;;6272547;28;20290;-72
2021/06/25 15:50:56;;;;;;;1.50;0.60;;;21.60;94.00;;;;;;6274127;28;20300;-72
2021/06/25 15:53:59;;;;;;;2.53;0.60;;;21.50;95.30;;;;;;6273780;28;20574;-72
2021/06/25 15:57:01;;;;;;;0.93;0.60;;;21.40;97.10;;;;;;6256208;28;20187;-71
2021/06/25 16:00:06;;;;;;;0.90;0.80;;;21.30;97.80;;;;;;6255857;28;20202;-72
2021/06/25 16:03:08;;;;;;;2.40;0.60;;;21.10;96.10;;;;;;6274571;28;20191;-72
2021/06/25 16:06:10;;;;;;;0.63;0.63;;;20.80;97.60;;;;;;6304264;28;20206;-72
2021/06/25 16:09:33;;;;;;;0.63;0.50;;;20.60;98.90;;;;;;6272302;28;20199;-72
2021/06/25 16:12:35;;;;;;;1.63;0.70;;;20.40;98.70;;;;;;6271330;28;20207;-72
2021/06/25 16:15:38;;;;;;;1.30;0.60;;;20.30;99.70;;;;;;6272235;28;20196;-72
2021/06/25 16:18:40;;;;;;;0.60;0.60;;;20.20;99.90;;;;;;6271390;28;20563;-72